sensor_id;sensor_type;location;lat;lon;timestamp;temperature;humidity
19263;DHT22;9765;52.354;20.884;2022-10-16T06:08:00;12.40;99.90
19263;DHT22;9765;52.354;20.884;2022-10-16T06:10:29;12.70;99.90
19263;DHT22;9765;52.354;20.884;2022-10-16T06:12:56;12.90;99.90
19263;DHT22;9765;52.354;20.884;2022-10-16T06:15:22;13.10;99.90
19263;DHT22;9765;52.354;20.884;2022-10-16T06:17:49;13.20;99.90
19263;DHT22;9765;52.354;20.884;2022-10-16T06:20:16;13.30;99.90
19263;DHT22;9765;52.354;20.884;2022-10-16T06:22:42;13.50;99.90
19263;DHT22;9765;52.354;20.884;2022-10-16T06:25:10;13.70;99.90
19263;DHT22;9765;52.354;20.884;2022-10-16T06:27:39;13.80;99.90
19263;DHT22;9765;52.354;20.884;2022-10-16T06:30:09;14.00;99.90
19263;DHT22;9765;52.354;20.884;2022-10-16T06:32:36;14.20;99.90
19263;DHT22;9765;52.354;20.884;2022-10-16T06:35:03;14.30;99.90
19263;DHT22;9765;52.354;20.884;2022-10-16T06:37:30;14.50;99.90
19263;DHT22;9765;52.354;20.884;2022-10-16T06:39:58;14.70;99.90
19263;DHT22;9765;52.354;20.884;2022-10-16T06:42:26;14.80;99.90
19263;DHT22;9765;52.354;20.884;2022-10-16T06:44:53;15.00;99.90
19263;DHT22;9765;52.354;20.884;2022-10-16T06:47:20;15.30;99.90
19263;DHT22;9765;52.354;20.884;2022-10-16T06:49:46;15.30;99.90
19263;DHT22;9765;52.354;20.884;2022-10-16T06:52:13;15.50;99.90
19263;DHT22;9765;52.354;20.884;2022-10-16T06:54:40;15.70;99.90
19263;DHT22;9765;52.354;20.884;2022-10-16T06:57:06;15.90;99.90
19263;DHT22;9765;52.354;20.884;2022-10-16T06:59:37;16.20;99.90
19263;DHT22;9765;52.354;20.884;2022-10-16T07:02:04;16.40;99.90
19263;DHT22;9765;52.354;20.884;2022-10-16T07:04:32;16.50;99.90
19263;DHT22;9765;52.354;20.884;2022-10-16T07:07:00;16.40;99.90
19263;DHT22;9765;52.354;20.884;2022-10-16T07:09:27;16.30;99.90
19263;DHT22;9765;52.354;20.884;2022-10-16T07:11:53;16.10;99.90
19263;DHT22;9765;52.354;20.884;2022-10-16T07:14:21;16.00;99.90
19263;DHT22;9765;52.354;20.884;2022-10-16T07:16:50;15.90;99.90
19263;DHT22;9765;52.354;20.884;2022-10-16T07:19:16;15.90;99.90
19263;DHT22;9765;52.354;20.884;2022-10-16T07:21:43;15.80;99.90
19263;DHT22;9765;52.354;20.884;2022-10-16T07:24:12;15.70;99.90
19263;DHT22;9765;52.354;20.884;2022-10-16T07:26:40;15.70;99.90
19263;DHT22;9765;52.354;20.884;2022-10-16T07:29:08;15.60;99.90
19263;DHT22;9765;52.354;20.884;2022-10-16T07:31:37;15.60;99.90
19263;DHT22;9765;52.354;20.884;2022-10-16T07:34:06;15.50;99.90
19263;DHT22;9765;52.354;20.884;2022-10-16T07:36:33;15.50;99.90
19263;DHT22;9765;52.354;20.884;2022-10-16T07:39:00;15.60;99.90
19263;DHT22;9765;52.354;20.884;2022-10-16T07:41:27;15.50;99.90
19263;DHT22;9765;52.354;20.884;2022-10-16T07:43:55;15.70;99.90
19263;DHT22;9765;52.354;20.884;2022-10-16T07:46:25;15.90;99.90
19263;DHT22;9765;52.354;20.884;2022-10-16T07:48:52;16.10;99.90
19263;DHT22;9765;52.354;20.884;2022-10-16T07:51:21;16.40;99.90
19263;DHT22;9765;52.354;20.884;2022-10-16T07:53:48;16.60;99.90
19263;DHT22;9765;52.354;20.884;2022-10-16T07:56:17;16.70;99.90
19263;DHT22;9765;52.354;20.884;2022-10-16T07:58:44;16.80;99.90
19263;DHT22;9765;52.354;20.884;2022-10-16T08:01:12;16.80;99.90
19263;DHT22;9765;52.354;20.884;2022-10-16T08:03:42;16.80;99.90
19263;DHT22;9765;52.354;20.884;2022-10-16T08:06:08;16.80;99.90
19263;DHT22;9765;52.354;20.884;2022-10-16T08:08:36;16.90;99.90
19263;DHT22;9765;52.354;20.884;2022-10-16T08:11:03;16.90;99.90
19263;DHT22;9765;52.354;20.884;2022-10-16T08:13:30;17.00;99.90
19263;DHT22;9765;52.354;20.884;2022-10-16T08:15:57;17.10;99.90
19263;DHT22;9765;52.354;20.884;2022-10-16T08:18:24;17.30;99.90
19263;DHT22;9765;52.354;20.884;2022-10-16T08:20:58;17.40;99.90
19263;DHT22;9765;52.354;20.884;2022-10-16T08:23:28;17.50;99.90
19263;DHT22;9765;52.354;20.884;2022-10-16T08:26:01;17.50;99.90
19263;DHT22;9765;52.354;20.884;2022-10-16T08:28:28;17.60;99.90
19263;DHT22;9765;52.354;20.884;2022-10-16T08:30:55;17.60;99.90
19263;DHT22;9765;52.354;20.884;2022-10-16T08:33:22;17.70;99.90
19263;DHT22;9765;52.354;20.884;2022-10-16T08:35:52;17.70;99.90
19263;DHT22;9765;52.354;20.884;2022-10-16T08:38:19;17.70;99.90
19263;DHT22;9765;52.354;20.884;2022-10-16T08:40:46;17.80;99.90
19263;DHT22;9765;52.354;20.884;2022-10-16T08:43:40;17.90;99.90
19263;DHT22;9765;52.354;20.884;2022-10-16T08:46:21;18.00;99.90
19263;DHT22;9765;52.354;20.884;2022-10-16T08:48:54;18.00;99.90
19263;DHT22;9765;52.354;20.884;2022-10-16T08:51:24;18.00;99.90
19263;DHT22;9765;52.354;20.884;2022-10-16T08:53:55;18.00;99.90
19263;DHT22;9765;52.354;20.884;2022-10-16T08:56:23;18.00;99.90
19263;DHT22;9765;52.354;20.884;2022-10-16T08:58:53;18.10;99.90
19263;DHT22;9765;52.354;20.884;2022-10-16T09:01:21;18.10;99.90
19263;DHT22;9765;52.354;20.884;2022-10-16T09:06:45;18.20;99.90
19263;DHT22;9765;52.354;20.884;2022-10-16T09:09:34;18.30;99.90
19263;DHT22;9765;52.354;20.884;2022-10-16T09:12:05;18.50;99.90
19263;DHT22;9765;52.354;20.884;2022-10-16T09:15:05;18.70;99.90
19263;DHT22;9765;52.354;20.884;2022-10-16T09:17:40;19.00;99.90
19263;DHT22;9765;52.354;20.884;2022-10-16T09:20:27;19.30;99.90
19263;DHT22;9765;52.354;20.884;2022-10-16T09:23:10;19.50;99.90
19263;DHT22;9765;52.354;20.884;2022-10-16T09:25:40;19.50;99.90
19263;DHT22;9765;52.354;20.884;2022-10-16T09:28:07;19.60;99.90
19263;DHT22;9765;52.354;20.884;2022-10-16T09:30:37;19.50;99.90
19263;DHT22;9765;52.354;20.884;2022-10-16T09:33:05;19.50;99.90
19263;DHT22;9765;52.354;20.884;2022-10-16T09:35:36;19.40;99.90
19263;DHT22;9765;52.354;20.884;2022-10-16T09:38:04;19.40;99.90
19263;DHT22;9765;52.354;20.884;2022-10-16T09:40:33;19.30;99.90
19263;DHT22;9765;52.354;20.884;2022-10-16T09:43:03;19.30;99.90
19263;DHT22;9765;52.354;20.884;2022-10-16T09:45:32;19.30;99.90
19263;DHT22;9765;52.354;20.884;2022-10-16T09:48:01;19.30;99.90
19263;DHT22;9765;52.354;20.884;2022-10-16T09:50:36;19.40;99.90
19263;DHT22;9765;52.354;20.884;2022-10-16T09:53:05;19.40;99.90
19263;DHT22;9765;52.354;20.884;2022-10-16T09:55:32;19.60;99.90
19263;DHT22;9765;52.354;20.884;2022-10-16T09:57:59;19.70;99.90
19263;DHT22;9765;52.354;20.884;2022-10-16T10:00:25;19.80;99.90
19263;DHT22;9765;52.354;20.884;2022-10-16T10:02:53;19.90;99.90
19263;DHT22;9765;52.354;20.884;2022-10-16T10:05:23;20.00;99.90
19263;DHT22;9765;52.354;20.884;2022-10-16T10:07:54;20.10;99.90
19263;DHT22;9765;52.354;20.884;2022-10-16T10:10:24;20.10;99.90
19263;DHT22;9765;52.354;20.884;2022-10-16T10:12:51;20.20;99.90
19263;DHT22;9765;52.354;20.884;2022-10-16T10:15:18;20.20;99.90
19263;DHT22;9765;52.354;20.884;2022-10-16T10:17:48;20.10;99.90
19263;DHT22;9765;52.354;20.884;2022-10-16T10:20:28;20.10;99.90
19263;DHT22;9765;52.354;20.884;2022-10-16T10:22:56;20.10;99.90
19263;DHT22;9765;52.354;20.884;2022-10-16T10:25:35;20.00;99.90
19263;DHT22;9765;52.354;20.884;2022-10-16T10:28:20;20.00;99.90
19263;DHT22;9765;52.354;20.884;2022-10-16T10:30:55;19.90;99.90
19263;DHT22;9765;52.354;20.884;2022-10-16T10:33:28;19.80;99.90
19263;DHT22;9765;52.354;20.884;2022-10-16T10:36:08;19.70;99.90
19263;DHT22;9765;52.354;20.884;2022-10-16T10:38:46;19.70;99.90
19263;DHT22;9765;52.354;20.884;2022-10-16T10:41:27;19.70;99.90
19263;DHT22;9765;52.354;20.884;2022-10-16T10:44:01;19.60;99.90
19263;DHT22;9765;52.354;20.884;2022-10-16T10:46:34;20.20;99.90
19263;DHT22;9765;52.354;20.884;2022-10-16T10:49:19;19.70;99.90
19263;DHT22;9765;52.354;20.884;2022-10-16T10:51:56;19.70;99.90
19263;DHT22;9765;52.354;20.884;2022-10-16T10:54:33;19.30;99.90
19263;DHT22;9765;52.354;20.884;2022-10-16T10:57:07;19.90;99.90
19263;DHT22;9765;52.354;20.884;2022-10-16T10:59:53;19.90;99.90
19263;DHT22;9765;52.354;20.884;2022-10-16T11:02:26;19.90;99.90
19263;DHT22;9765;52.354;20.884;2022-10-16T11:05:21;20.00;99.90
19263;DHT22;9765;52.354;20.884;2022-10-16T11:07:57;20.20;99.90
19263;DHT22;9765;52.354;20.884;2022-10-16T11:10:27;20.30;99.90
19263;DHT22;9765;52.354;20.884;2022-10-16T11:12:58;20.40;99.90
19263;DHT22;9765;52.354;20.884;2022-10-16T11:15:30;20.40;99.90
19263;DHT22;9765;52.354;20.884;2022-10-16T11:18:03;20.40;99.90
19263;DHT22;9765;52.354;20.884;2022-10-16T11:20:33;20.50;99.90
19263;DHT22;9765;52.354;20.884;2022-10-16T11:23:08;20.50;99.90
19263;DHT22;9765;52.354;20.884;2022-10-16T11:25:39;20.40;99.90
19263;DHT22;9765;52.354;20.884;2022-10-16T11:28:10;20.40;99.90
19263;DHT22;9765;52.354;20.884;2022-10-16T11:30:43;20.30;99.90
19263;DHT22;9765;52.354;20.884;2022-10-16T11:33:23;20.30;99.90
19263;DHT22;9765;52.354;20.884;2022-10-16T11:35:55;20.30;99.90
19263;DHT22;9765;52.354;20.884;2022-10-16T11:38:30;20.40;99.90
19263;DHT22;9765;52.354;20.884;2022-10-16T11:41:01;20.30;99.90
19263;DHT22;9765;52.354;20.884;2022-10-16T11:43:34;20.30;99.90
19263;DHT22;9765;52.354;20.884;2022-10-16T11:46:07;20.30;99.90
19263;DHT22;9765;52.354;20.884;2022-10-16T11:48:41;20.20;99.90
19263;DHT22;9765;52.354;20.884;2022-10-16T11:51:16;20.30;99.90
19263;DHT22;9765;52.354;20.884;2022-10-16T11:53:53;20.20;99.90
19263;DHT22;9765;52.354;20.884;2022-10-16T11:56:21;20.20;99.90
19263;DHT22;9765;52.354;20.884;2022-10-16T11:58:55;20.30;99.90
19263;DHT22;9765;52.354;20.884;2022-10-16T12:01:29;20.40;99.90
19263;DHT22;9765;52.354;20.884;2022-10-16T12:04:05;20.40;99.90
19263;DHT22;9765;52.354;20.884;2022-10-16T12:06:36;20.50;99.90
19263;DHT22;9765;52.354;20.884;2022-10-16T12:09:14;20.50;99.90
19263;DHT22;9765;52.354;20.884;2022-10-16T12:11:42;20.50;99.90
19263;DHT22;9765;52.354;20.884;2022-10-16T12:14:21;20.50;99.90
19263;DHT22;9765;52.354;20.884;2022-10-16T12:16:53;20.50;99.90
19263;DHT22;9765;52.354;20.884;2022-10-16T12:19:22;20.90;99.90
19263;DHT22;9765;52.354;20.884;2022-10-16T12:21:50;20.40;99.90
19263;DHT22;9765;52.354;20.884;2022-10-16T12:24:31;20.50;99.90
19263;DHT22;9765;52.354;20.884;2022-10-16T12:26:59;20.50;99.90
19263;DHT22;9765;52.354;20.884;2022-10-16T12:29:35;20.60;99.90
19263;DHT22;9765;52.354;20.884;2022-10-16T12:32:22;20.60;99.90
19263;DHT22;9765;52.354;20.884;2022-10-16T12:34:51;20.60;99.90
19263;DHT22;9765;52.354;20.884;2022-10-16T12:37:21;20.60;99.90
19263;DHT22;9765;52.354;20.884;2022-10-16T12:39:51;20.50;99.90
19263;DHT22;9765;52.354;20.884;2022-10-16T12:42:23;20.50;99.90
19263;DHT22;9765;52.354;20.884;2022-10-16T12:44:50;20.50;99.90
19263;DHT22;9765;52.354;20.884;2022-10-16T12:47:22;20.60;99.90
19263;DHT22;9765;52.354;20.884;2022-10-16T12:49:50;20.50;99.90
19263;DHT22;9765;52.354;20.884;2022-10-16T12:52:27;20.50;99.90
19263;DHT22;9765;52.354;20.884;2022-10-16T12:55:00;20.60;99.90
19263;DHT22;9765;52.354;20.884;2022-10-16T12:57:35;20.50;99.90
19263;DHT22;9765;52.354;20.884;2022-10-16T13:00:15;20.50;99.90
19263;DHT22;9765;52.354;20.884;2022-10-16T13:02:56;20.40;99.90
19263;DHT22;9765;52.354;20.884;2022-10-16T13:05:32;20.30;99.90
19263;DHT22;9765;52.354;20.884;2022-10-16T13:08:17;20.20;99.90
19263;DHT22;9765;52.354;20.884;2022-10-16T13:10:59;20.20;99.90
19263;DHT22;9765;52.354;20.884;2022-10-16T13:13:47;20.10;99.90
19263;DHT22;9765;52.354;20.884;2022-10-16T13:16:23;20.10;99.90
19263;DHT22;9765;52.354;20.884;2022-10-16T13:19:03;20.00;99.90
19263;DHT22;9765;52.354;20.884;2022-10-16T13:21:38;20.00;99.90
19263;DHT22;9765;52.354;20.884;2022-10-16T13:24:17;20.00;99.90
19263;DHT22;9765;52.354;20.884;2022-10-16T13:26:53;19.90;99.90
19263;DHT22;9765;52.354;20.884;2022-10-16T13:29:21;19.80;99.90
19263;DHT22;9765;52.354;20.884;2022-10-16T13:31:50;19.80;99.90
19263;DHT22;9765;52.354;20.884;2022-10-16T13:34:21;19.80;99.90
19263;DHT22;9765;52.354;20.884;2022-10-16T13:36:50;19.80;99.90
19263;DHT22;9765;52.354;20.884;2022-10-16T13:39:23;19.80;99.90
19263;DHT22;9765;52.354;20.884;2022-10-16T13:42:05;19.80;99.90
19263;DHT22;9765;52.354;20.884;2022-10-16T13:44:36;19.80;99.90
19263;DHT22;9765;52.354;20.884;2022-10-16T13:47:15;19.80;99.90
19263;DHT22;9765;52.354;20.884;2022-10-16T13:49:43;19.80;99.90
19263;DHT22;9765;52.354;20.884;2022-10-16T13:52:17;19.80;99.90
19263;DHT22;9765;52.354;20.884;2022-10-16T13:54:45;19.70;99.90
19263;DHT22;9765;52.354;20.884;2022-10-16T13:57:14;19.70;99.90
19263;DHT22;9765;52.354;20.884;2022-10-16T13:59:41;19.70;99.90
19263;DHT22;9765;52.354;20.884;2022-10-16T14:02:17;19.60;99.90
19263;DHT22;9765;52.354;20.884;2022-10-16T14:04:46;19.60;99.90
19263;DHT22;9765;52.354;20.884;2022-10-16T14:07:16;19.50;99.90
19263;DHT22;9765;52.354;20.884;2022-10-16T14:09:48;19.50;99.90
19263;DHT22;9765;52.354;20.884;2022-10-16T14:12:17;19.40;99.90
19263;DHT22;9765;52.354;20.884;2022-10-16T14:14:45;19.50;99.90
19263;DHT22;9765;52.354;20.884;2022-10-16T14:17:16;19.50;99.90
19263;DHT22;9765;52.354;20.884;2022-10-16T14:19:46;19.40;99.90
19263;DHT22;9765;52.354;20.884;2022-10-16T14:22:27;19.40;99.90
19263;DHT22;9765;52.354;20.884;2022-10-16T14:24:55;19.40;99.90
19263;DHT22;9765;52.354;20.884;2022-10-16T14:27:28;19.30;99.90
19263;DHT22;9765;52.354;20.884;2022-10-16T14:30:12;19.40;99.90
19263;DHT22;9765;52.354;20.884;2022-10-16T14:32:40;19.30;99.90
19263;DHT22;9765;52.354;20.884;2022-10-16T14:35:22;19.30;99.90
19263;DHT22;9765;52.354;20.884;2022-10-16T14:37:51;19.30;99.90
19263;DHT22;9765;52.354;20.884;2022-10-16T14:40:19;19.20;99.90
19263;DHT22;9765;52.354;20.884;2022-10-16T14:42:48;19.30;99.90
19263;DHT22;9765;52.354;20.884;2022-10-16T14:45:19;19.20;99.90
19263;DHT22;9765;52.354;20.884;2022-10-16T14:47:54;19.20;99.90
19263;DHT22;9765;52.354;20.884;2022-10-16T14:50:22;19.20;99.90
19263;DHT22;9765;52.354;20.884;2022-10-16T14:52:48;19.20;99.90
19263;DHT22;9765;52.354;20.884;2022-10-16T14:55:15;19.30;99.90
19263;DHT22;9765;52.354;20.884;2022-10-16T14:57:43;19.20;99.90
19263;DHT22;9765;52.354;20.884;2022-10-16T15:00:16;19.20;99.90
19263;DHT22;9765;52.354;20.884;2022-10-16T15:02:44;19.10;99.90
19263;DHT22;9765;52.354;20.884;2022-10-16T15:05:13;19.10;99.90
19263;DHT22;9765;52.354;20.884;2022-10-16T15:07:40;19.10;99.90
19263;DHT22;9765;52.354;20.884;2022-10-16T15:10:07;19.00;99.90
19263;DHT22;9765;52.354;20.884;2022-10-16T15:12:34;19.00;99.90
19263;DHT22;9765;52.354;20.884;2022-10-16T15:15:01;19.00;99.90
19263;DHT22;9765;52.354;20.884;2022-10-16T15:17:29;18.90;99.90
19263;DHT22;9765;52.354;20.884;2022-10-16T15:19:56;18.90;99.90
19263;DHT22;9765;52.354;20.884;2022-10-16T15:22:24;19.20;99.90
